createdAt,value
2019-02-08T00:01:04.645Z,81.05
2019-02-08T00:03:32.535Z,81.23
2019-02-08T00:06:00.810Z,81.17
2019-02-08T00:08:28.807Z,81.65
2019-02-08T00:10:56.667Z,82.04
2019-02-08T00:13:24.601Z,82.44
2019-02-08T00:15:52.727Z,82.99
2019-02-08T00:18:20.723Z,83.06
2019-02-08T00:20:48.827Z,82.23
2019-02-08T00:23:26.150Z,82.19
2019-02-08T00:25:46.725Z,81.99
2019-02-08T00:28:14.677Z,82.11
2019-02-08T00:30:43.014Z,81.58
2019-02-08T00:33:11.064Z,81.80
2019-02-08T00:35:38.961Z,81.61
2019-02-08T00:38:07.007Z,81.66
2019-02-08T00:40:34.899Z,81.92
2019-02-08T00:43:03.125Z,81.74
2019-02-08T00:45:30.986Z,81.38
2019-02-08T00:47:58.743Z,81.19
2019-02-08T00:50:26.894Z,80.67
2019-02-08T00:52:55.153Z,81.29
2019-02-08T00:55:23.517Z,81.51
2019-02-08T00:57:51.932Z,81.08
2019-02-08T01:00:21.318Z,81.06
2019-02-08T01:02:49.633Z,81.36
2019-02-08T01:05:18.271Z,81.18
2019-02-08T01:07:46.300Z,80.82
2019-02-08T01:10:23.508Z,80.61
2019-02-08T01:12:52.232Z,81.05
2019-02-08T01:15:21.632Z,81.29
2019-02-08T01:17:49.581Z,81.17
2019-02-08T01:20:18.547Z,80.74
2019-02-08T01:22:46.512Z,81.18
2019-02-08T01:25:17.051Z,81.17
2019-02-08T01:27:44.986Z,81.59
2019-02-08T01:30:15.428Z,82.16
2019-02-08T01:32:43.437Z,81.69
2019-02-08T01:35:14.161Z,81.57
2019-02-08T01:37:42.877Z,81.35
2019-02-08T01:40:13.858Z,81.14
2019-02-08T01:42:41.697Z,81.58
2019-02-08T01:45:10.392Z,81.35
2019-02-08T01:48:14.191Z,81.08
2019-02-08T01:50:42.291Z,81.45
2019-02-08T01:53:11.262Z,81.92
2019-02-08T01:55:39.496Z,81.40
2019-02-08T01:58:07.475Z,82.33
2019-02-08T02:00:37.618Z,82.00
2019-02-08T02:03:06.910Z,81.79
2019-02-08T02:05:34.973Z,81.69
2019-02-08T02:08:04.074Z,81.70
2019-02-08T02:10:37.026Z,81.49
2019-02-08T02:13:05.537Z,81.29
2019-02-08T02:15:33.637Z,81.28
2019-02-08T02:18:01.603Z,81.61
2019-02-08T02:20:31.732Z,81.35
2019-02-08T02:22:59.731Z,81.51
2019-02-08T02:25:27.773Z,81.58
2019-02-08T02:27:55.705Z,81.42
2019-02-08T02:30:26.102Z,81.62
2019-02-08T02:32:53.966Z,81.62
2019-02-08T02:35:22.623Z,81.74
2019-02-08T02:37:51.268Z,81.97
2019-02-08T02:40:20.156Z,82.21
2019-02-08T02:42:48.512Z,81.96
2019-02-08T02:45:19.603Z,81.94
2019-02-08T02:47:47.551Z,82.42
2019-02-08T02:50:15.763Z,82.37
2019-02-08T02:52:43.656Z,82.61
2019-02-08T02:55:33.469Z,81.71
2019-02-08T02:58:01.362Z,82.00
2019-02-08T03:00:38.256Z,82.30
2019-02-08T03:03:06.560Z,82.28
2019-02-08T03:05:34.652Z,82.28
2019-02-08T03:08:03.331Z,82.36
2019-02-08T03:10:31.317Z,82.54
2019-02-08T03:12:59.353Z,82.72
2019-02-08T03:15:27.343Z,82.63
2019-02-08T03:17:55.226Z,82.43
2019-02-08T03:20:23.513Z,82.40
2019-02-08T03:22:51.799Z,82.29
2019-02-08T03:25:23.589Z,81.89
2019-02-08T03:27:52.346Z,82.09
2019-02-08T03:30:25.659Z,82.04
2019-02-08T03:32:55.475Z,81.78
2019-02-08T03:35:24.636Z,81.63
2019-02-08T03:37:52.629Z,81.56
2019-02-08T03:40:24.879Z,81.73
2019-02-08T03:42:53.109Z,81.68
2019-02-08T03:45:21.281Z,81.64
2019-02-08T03:47:49.748Z,81.52
2019-02-08T03:50:19.062Z,81.34
2019-02-08T03:52:47.149Z,81.25
2019-02-08T03:55:16.688Z,80.76
2019-02-08T03:57:44.649Z,81.13
2019-02-08T04:00:28.272Z,81.00
2019-02-08T04:02:56.245Z,81.20
2019-02-08T04:05:24.729Z,81.23
2019-02-08T04:07:52.628Z,80.92
2019-02-08T04:10:21.922Z,80.62
2019-02-08T04:12:49.913Z,81.58
2019-02-08T04:15:18.239Z,81.80
2019-02-08T04:17:47.015Z,81.64
2019-02-08T04:20:16.596Z,81.71
2019-02-08T04:22:44.757Z,82.07
2019-02-08T04:25:13.848Z,82.00
2019-02-08T04:27:42.633Z,81.65
2019-02-08T04:30:17.506Z,82.11
2019-02-08T04:32:46.084Z,82.03
2019-02-08T04:35:14.030Z,81.85
2019-02-08T04:37:41.920Z,81.78
2019-02-08T04:40:11.139Z,81.68
2019-02-08T04:42:39.083Z,81.78
2019-02-08T04:45:07.826Z,81.96
2019-02-08T04:47:35.683Z,81.71
2019-02-08T04:50:05.027Z,81.80
2019-02-08T04:52:33.297Z,81.81
2019-02-08T04:55:01.129Z,81.55
2019-02-08T04:57:29.110Z,81.61
2019-02-08T04:59:56.892Z,81.64
2019-02-08T05:02:24.903Z,81.89
2019-02-08T05:04:52.749Z,81.79
2019-02-08T05:07:20.889Z,81.74
2019-02-08T05:09:48.855Z,81.71
2019-02-08T05:12:16.701Z,81.55
2019-02-08T05:14:44.703Z,81.63
2019-02-08T05:17:12.582Z,81.64
2019-02-08T05:19:40.405Z,81.33
2019-02-08T05:22:08.448Z,81.31
2019-02-08T05:24:36.410Z,81.47
2019-02-08T05:27:04.393Z,81.13
2019-02-08T05:29:33.005Z,81.70
2019-02-08T05:32:01.106Z,81.75
2019-02-08T05:34:28.962Z,81.64
2019-02-08T05:36:57.486Z,81.63
2019-02-08T05:39:26.143Z,81.75
2019-02-08T05:41:54.072Z,81.67
2019-02-08T05:44:21.950Z,81.67
2019-02-08T05:46:49.907Z,81.61
2019-02-08T05:49:17.796Z,81.50
2019-02-08T05:51:46.289Z,81.44
2019-02-08T05:54:14.241Z,81.51
2019-02-08T05:56:42.591Z,81.25
2019-02-08T05:59:10.465Z,81.31
2019-02-08T06:01:38.490Z,81.43
2019-02-08T06:04:06.574Z,81.50
2019-02-08T06:06:34.582Z,81.41
2019-02-08T06:09:13.514Z,81.11
2019-02-08T06:11:41.550Z,81.66
2019-02-08T06:14:09.614Z,81.58
2019-02-08T06:16:37.576Z,81.57
2019-02-08T06:19:05.875Z,81.40
2019-02-08T06:21:33.805Z,81.27
2019-02-08T06:24:01.670Z,81.56
2019-02-08T06:26:29.687Z,81.30
2019-02-08T06:28:57.727Z,81.19
2019-02-08T06:31:25.965Z,81.46
2019-02-08T06:33:53.949Z,82.00
2019-02-08T06:36:21.948Z,82.01
2019-02-08T06:38:49.841Z,81.86
2019-02-08T06:41:18.007Z,81.78
2019-02-08T06:43:46.247Z,81.22
2019-02-08T06:46:14.123Z,81.60
2019-02-08T06:48:42.168Z,81.98
2019-02-08T06:51:10.030Z,81.80
2019-02-08T06:53:38.101Z,81.78
2019-02-08T06:56:09.366Z,81.82
2019-02-08T06:58:45.645Z,81.59
2019-02-08T07:01:36.030Z,81.65
2019-02-08T07:04:22.539Z,81.61
2019-02-08T07:07:22.291Z,81.46
2019-02-08T07:10:12.626Z,81.47
2019-02-08T07:13:17.934Z,81.29
2019-02-08T07:16:05.443Z,81.53
2019-02-08T07:18:41.860Z,81.24
2019-02-08T07:21:32.378Z,80.90
2019-02-08T07:24:18.501Z,81.12
2019-02-08T07:27:11.963Z,80.69
2019-02-08T07:30:02.546Z,80.88
2019-02-08T07:32:48.511Z,81.32
2019-02-08T07:35:48.611Z,81.17
2019-02-08T07:38:42.498Z,80.26
2019-02-08T07:41:29.829Z,80.50
2019-02-08T07:44:22.876Z,79.90
2019-02-08T07:47:14.661Z,80.08
2019-02-08T07:49:51.642Z,79.79
2019-02-08T07:52:42.222Z,79.74
2019-02-08T07:55:54.525Z,80.10
2019-02-08T07:58:47.944Z,80.28
2019-02-08T08:01:48.437Z,79.41
2019-02-08T08:04:34.935Z,79.59
2019-02-08T08:07:09.812Z,79.09
2019-02-08T08:10:03.164Z,78.93
2019-02-08T08:12:54.785Z,78.39
2019-02-08T08:15:40.949Z,78.59
2019-02-08T08:18:25.360Z,78.20
2019-02-08T08:21:12.774Z,78.17
2019-02-08T08:24:13.829Z,78.14
2019-02-08T08:27:14.688Z,77.99
2019-02-08T08:30:01.480Z,77.79
2019-02-08T08:32:43.243Z,77.25
2019-02-08T08:35:39.942Z,76.92
2019-02-08T08:39:04.319Z,76.96
2019-02-08T08:42:12.811Z,77.27
2019-02-08T08:45:16.928Z,76.65
2019-02-08T08:48:34.955Z,76.44
2019-02-08T08:51:31.357Z,75.88
2019-02-08T08:54:43.886Z,75.59
2019-02-08T08:58:02.060Z,75.50
2019-02-08T09:01:14.362Z,74.83
2019-02-08T09:04:25.695Z,74.60
2019-02-08T09:07:25.061Z,74.80
2019-02-08T09:10:49.413Z,74.42
2019-02-08T09:13:42.778Z,74.24
2019-02-08T09:16:52.746Z,73.49
2019-02-08T09:20:02.941Z,73.61
2019-02-08T09:23:10.704Z,72.71
2019-02-08T09:26:13.781Z,73.08
2019-02-08T09:29:05.635Z,72.33
2019-02-08T09:32:10.685Z,72.91
2019-02-08T09:35:34.156Z,72.71
2019-02-08T09:38:40.704Z,71.90
2019-02-08T09:41:45.737Z,71.43
2019-02-08T09:44:58.713Z,72.36
2019-02-08T09:48:08.806Z,72.05
2019-02-08T09:51:13.573Z,72.15
2019-02-08T09:54:27.716Z,72.52
2019-02-08T09:57:27.707Z,72.07
2019-02-08T10:00:42.880Z,71.86
2019-02-08T10:03:59.851Z,71.38
2019-02-08T10:07:05.016Z,71.74
2019-02-08T10:10:19.693Z,71.38
2019-02-08T10:13:40.664Z,71.61
2019-02-08T10:16:37.662Z,71.96
2019-02-08T10:19:55.314Z,71.79
2019-02-08T10:23:18.528Z,72.04
2019-02-08T10:26:35.948Z,72.20
2019-02-08T10:29:40.713Z,72.18
2019-02-08T10:32:42.891Z,72.37
2019-02-08T10:35:54.662Z,72.17
2019-02-08T10:39:18.923Z,71.07
2019-02-08T10:42:30.504Z,70.82
2019-02-08T10:45:34.635Z,71.01
2019-02-08T10:48:55.316Z,70.34
2019-02-08T10:52:00.413Z,70.24
2019-02-08T10:55:22.889Z,69.15
2019-02-08T10:58:30.973Z,68.90
2019-02-08T11:01:32.917Z,69.23
2019-02-08T11:04:30.851Z,67.97
2019-02-08T11:07:48.331Z,67.96
2019-02-08T11:11:08.208Z,66.98
2019-02-08T11:14:16.121Z,66.95
2019-02-08T11:17:22.712Z,66.35
2019-02-08T11:20:05.115Z,65.52
2019-02-08T11:22:33.203Z,66.03
2019-02-08T11:25:01.233Z,65.59
2019-02-08T11:27:29.239Z,64.87
2019-02-08T11:29:57.357Z,64.26
2019-02-08T11:32:28.669Z,63.55
2019-02-08T11:34:55.263Z,63.39
2019-02-08T11:37:23.154Z,62.99
2019-02-08T11:39:51.327Z,62.34
2019-02-08T11:42:19.995Z,62.40
2019-02-08T11:44:48.039Z,62.35
2019-02-08T11:47:16.103Z,61.92
2019-02-08T11:49:44.002Z,62.15
2019-02-08T11:52:11.970Z,61.62
2019-02-08T11:54:40.358Z,61.22
2019-02-08T11:57:08.316Z,61.33
2019-02-08T11:59:36.368Z,60.90
2019-02-08T12:02:05.221Z,60.67
2019-02-08T12:04:33.668Z,61.41
2019-02-08T12:07:01.653Z,61.42
2019-02-08T12:09:30.344Z,60.89
2019-02-08T12:11:58.255Z,60.66
2019-02-08T12:14:26.106Z,60.93
2019-02-08T12:16:54.042Z,60.75
2019-02-08T12:19:22.013Z,60.88
2019-02-08T12:21:53.202Z,60.25
2019-02-08T12:24:21.239Z,60.25
2019-02-08T12:26:49.014Z,60.32
2019-02-08T12:29:17.022Z,60.21
2019-02-08T12:31:44.879Z,59.71
2019-02-08T12:34:12.854Z,59.51
2019-02-08T12:36:40.826Z,59.53
2019-02-08T12:39:10.349Z,59.44
2019-02-08T12:41:38.604Z,59.44
2019-02-08T12:44:06.998Z,59.48
2019-02-08T12:46:35.652Z,59.65
2019-02-08T12:49:03.865Z,58.87
2019-02-08T12:51:31.751Z,59.26
2019-02-08T12:53:59.798Z,59.55
2019-02-08T12:56:27.828Z,59.02
2019-02-08T12:58:56.552Z,58.77
2019-02-08T13:01:24.590Z,58.01
2019-02-08T13:03:52.687Z,57.76
2019-02-08T13:06:20.682Z,58.26
2019-02-08T13:08:48.462Z,58.03
2019-02-08T13:11:16.491Z,57.36
2019-02-08T13:13:44.377Z,57.37
2019-02-08T13:16:12.409Z,56.89
2019-02-08T13:18:40.270Z,57.43
2019-02-08T13:21:08.233Z,56.87
2019-02-08T13:23:36.181Z,55.70
2019-02-08T13:26:04.311Z,56.67
2019-02-08T13:28:32.748Z,55.57
2019-02-08T13:31:00.530Z,56.16
2019-02-08T13:33:28.443Z,56.27
2019-02-08T13:35:56.205Z,56.41
2019-02-08T13:38:24.310Z,55.91
2019-02-08T13:40:52.379Z,56.14
2019-02-08T13:43:20.414Z,55.77
2019-02-08T13:45:48.464Z,56.10
2019-02-08T13:48:16.219Z,55.99
2019-02-08T13:50:44.261Z,55.55
2019-02-08T13:53:13.024Z,55.74
2019-02-08T13:55:50.054Z,55.63
2019-02-08T13:58:18.014Z,55.60
2019-02-08T14:00:46.024Z,56.00
2019-02-08T14:03:13.880Z,55.99
2019-02-08T14:05:41.777Z,55.02
2019-02-08T14:08:09.837Z,55.43
2019-02-08T14:10:37.831Z,55.74
2019-02-08T14:13:05.982Z,55.06
2019-02-08T14:15:34.244Z,54.70
2019-02-08T14:18:02.419Z,55.02
2019-02-08T14:20:30.437Z,54.72
2019-02-08T14:22:58.387Z,55.17
2019-02-08T14:25:26.695Z,54.44
2019-02-08T14:27:54.773Z,54.58
2019-02-08T14:30:33.927Z,54.85
2019-02-08T14:33:01.931Z,55.35
2019-02-08T14:35:30.124Z,55.91
2019-02-08T14:37:59.286Z,55.83
2019-02-08T14:40:27.360Z,56.01
2019-02-08T14:42:55.493Z,56.39
2019-02-08T14:45:24.085Z,56.45
2019-02-08T14:47:52.144Z,56.12
2019-02-08T14:50:21.851Z,55.81
2019-02-08T14:52:49.965Z,56.26
2019-02-08T14:55:18.089Z,56.40
2019-02-08T14:57:46.811Z,56.31
2019-02-08T15:00:17.482Z,56.93
2019-02-08T15:02:45.515Z,56.79
2019-02-08T15:05:14.382Z,57.21
2019-02-08T15:07:42.435Z,57.54
2019-02-08T15:10:16.279Z,57.70
2019-02-08T15:12:44.321Z,57.95
2019-02-08T15:15:12.314Z,58.12
2019-02-08T15:17:40.510Z,58.31
2019-02-08T15:20:15.488Z,58.93
2019-02-08T15:22:43.582Z,59.04
2019-02-08T15:25:12.134Z,59.77
2019-02-08T15:27:40.012Z,60.14
2019-02-08T15:30:10.565Z,60.17
2019-02-08T15:32:38.444Z,60.73
2019-02-08T15:35:07.051Z,60.88
2019-02-08T15:37:34.921Z,61.50
2019-02-08T15:40:04.420Z,61.95
2019-02-08T15:42:32.213Z,62.36
2019-02-08T15:45:00.283Z,62.50
2019-02-08T15:47:28.585Z,63.30
2019-02-08T15:49:56.515Z,63.27
2019-02-08T15:52:24.570Z,63.35
2019-02-08T15:54:52.467Z,63.88
2019-02-08T15:57:20.511Z,63.76
2019-02-08T15:59:49.137Z,64.47
2019-02-08T16:02:17.192Z,64.64
2019-02-08T16:04:46.037Z,64.71
2019-02-08T16:07:13.969Z,64.77
2019-02-08T16:09:42.063Z,65.22
2019-02-08T16:12:10.539Z,65.60
2019-02-08T16:14:38.342Z,65.46
2019-02-08T16:17:06.578Z,65.64
2019-02-08T16:19:39.249Z,65.63
2019-02-08T16:22:07.931Z,65.96
2019-02-08T16:24:35.844Z,66.03
2019-02-08T16:27:04.624Z,66.12
2019-02-08T16:29:32.594Z,66.46
2019-02-08T16:32:00.472Z,66.91
2019-02-08T16:34:28.647Z,67.00
2019-02-08T16:37:03.397Z,68.17
2019-02-08T16:39:26.362Z,67.29
2019-02-08T16:41:54.364Z,67.22
2019-02-08T16:44:22.641Z,67.17
2019-02-08T16:46:50.618Z,67.29
2019-02-08T16:49:18.573Z,67.42
2019-02-08T16:51:46.442Z,67.38
2019-02-08T16:54:14.438Z,67.11
2019-02-08T16:56:42.460Z,67.50
2019-02-08T16:59:10.419Z,68.11
2019-02-08T17:01:38.464Z,68.15
2019-02-08T17:04:06.364Z,68.18
2019-02-08T17:06:34.383Z,68.52
2019-02-08T17:09:02.462Z,68.71
2019-02-08T17:11:30.315Z,68.76
2019-02-08T17:13:58.093Z,69.16
2019-02-08T17:16:26.009Z,69.38
2019-02-08T17:18:53.827Z,69.28
2019-02-08T17:21:21.697Z,69.14
2019-02-08T17:23:49.558Z,69.63
2019-02-08T17:26:17.698Z,70.17
2019-02-08T17:28:45.690Z,70.69
2019-02-08T17:31:13.505Z,70.51
2019-02-08T17:33:41.319Z,70.44
2019-02-08T17:36:09.360Z,71.67
2019-02-08T17:38:37.156Z,70.65
2019-02-08T17:41:05.670Z,71.08
2019-02-08T17:43:33.529Z,71.44
2019-02-08T17:46:01.931Z,71.65
2019-02-08T17:48:29.963Z,71.74
2019-02-08T17:50:57.722Z,71.52
2019-02-08T17:53:25.555Z,71.47
2019-02-08T17:55:53.549Z,71.47
2019-02-08T17:58:21.576Z,72.26
2019-02-08T18:00:51.580Z,71.99
2019-02-08T18:03:19.827Z,72.99
2019-02-08T18:05:47.943Z,72.74
2019-02-08T18:08:15.749Z,72.98
2019-02-08T18:10:43.778Z,73.28
2019-02-08T18:13:11.828Z,73.81
2019-02-08T18:15:40.746Z,74.34
2019-02-08T18:18:11.116Z,73.35
2019-02-08T18:20:42.326Z,73.89
2019-02-08T18:23:10.324Z,73.45
2019-02-08T18:25:38.213Z,74.11
2019-02-08T18:28:11.001Z,73.82
2019-02-08T18:30:36.398Z,73.54
2019-02-08T18:33:04.464Z,73.57
2019-02-08T18:35:32.452Z,73.67
2019-02-08T18:38:00.416Z,74.10
2019-02-08T18:40:28.454Z,75.05
2019-02-08T18:42:56.541Z,75.35
2019-02-08T18:45:26.066Z,75.58
2019-02-08T18:47:54.030Z,74.59
2019-02-08T18:50:24.894Z,74.78
2019-02-08T18:52:52.998Z,75.15
2019-02-08T18:55:21.099Z,75.27
2019-02-08T18:57:49.635Z,74.60
2019-02-08T19:00:23.162Z,74.09
2019-02-08T19:02:51.100Z,74.25
2019-02-08T19:05:19.096Z,74.69
2019-02-08T19:07:57.906Z,75.18
2019-02-08T19:10:25.992Z,74.43
2019-02-08T19:12:53.956Z,74.83
2019-02-08T19:15:22.256Z,75.13
2019-02-08T19:17:51.054Z,75.16
2019-02-08T19:20:20.724Z,75.00
2019-02-08T19:22:48.976Z,75.35
2019-02-08T19:25:19.584Z,74.80
2019-02-08T19:27:47.483Z,75.28
2019-02-08T19:30:19.482Z,75.35
2019-02-08T19:32:47.613Z,75.21
2019-02-08T19:35:15.762Z,75.98
2019-02-08T19:37:53.521Z,75.34
2019-02-08T19:40:24.299Z,75.55
2019-02-08T19:42:52.205Z,75.16
2019-02-08T19:45:20.728Z,75.43
2019-02-08T19:47:48.711Z,75.50
2019-02-08T19:50:25.269Z,75.46
2019-02-08T19:52:53.475Z,76.04
2019-02-08T19:55:21.455Z,75.47
2019-02-08T19:57:49.507Z,75.48
2019-02-08T20:00:21.543Z,75.24
2019-02-08T20:02:49.667Z,74.95
2019-02-08T20:05:19.610Z,75.11
2019-02-08T20:07:47.702Z,75.87
2019-02-08T20:10:27.681Z,75.50
2019-02-08T20:12:55.747Z,76.16
2019-02-08T20:15:23.730Z,76.08
2019-02-08T20:17:51.719Z,75.78
2019-02-08T20:20:19.743Z,76.12
2019-02-08T20:22:48.020Z,75.75
2019-02-08T20:25:21.618Z,75.88
2019-02-08T20:27:50.101Z,76.65
2019-02-08T20:30:19.904Z,75.93
2019-02-08T20:32:48.202Z,76.23
2019-02-08T20:35:17.853Z,76.14
2019-02-08T20:37:46.195Z,75.86
2019-02-08T20:40:19.614Z,75.88
2019-02-08T20:42:47.938Z,76.51
2019-02-08T20:45:19.108Z,76.63
2019-02-08T20:47:47.182Z,76.04
2019-02-08T20:50:16.454Z,75.93
2019-02-08T20:52:45.337Z,76.43
2019-02-08T20:55:15.029Z,76.63
2019-02-08T20:57:43.082Z,76.88
2019-02-08T21:00:35.838Z,76.49
2019-02-08T21:03:07.227Z,76.77
2019-02-08T21:05:35.340Z,76.07
2019-02-08T21:08:04.106Z,75.99
2019-02-08T21:10:32.068Z,75.97
2019-02-08T21:13:00.116Z,75.72
2019-02-08T21:15:28.173Z,76.18
2019-02-08T21:17:56.313Z,75.90
2019-02-08T21:20:24.426Z,75.89
2019-02-08T21:22:52.425Z,76.54
2019-02-08T21:25:25.210Z,76.54
2019-02-08T21:27:53.272Z,76.21
2019-02-08T21:30:21.426Z,76.58
2019-02-08T21:32:49.462Z,76.84
2019-02-08T21:35:18.320Z,76.56
2019-02-08T21:37:47.996Z,76.51
2019-02-08T21:40:18.349Z,77.38
2019-02-08T21:42:46.303Z,76.90
2019-02-08T21:45:18.447Z,76.93
2019-02-08T21:47:46.415Z,77.21
2019-02-08T21:50:16.951Z,77.50
2019-02-08T21:52:45.509Z,77.41
2019-02-08T21:55:14.098Z,77.46
2019-02-08T21:57:41.989Z,77.49
2019-02-08T22:00:22.776Z,77.30
2019-02-08T22:02:51.221Z,77.13
2019-02-08T22:05:21.856Z,77.81
2019-02-08T22:07:50.044Z,78.08
2019-02-08T22:10:18.125Z,77.97
2019-02-08T22:12:46.164Z,78.53
2019-02-08T22:15:19.732Z,78.32
2019-02-08T22:17:47.835Z,78.12
2019-02-08T22:20:16.804Z,78.27
2019-02-08T22:22:45.236Z,77.67
2019-02-08T22:25:15.213Z,77.76
2019-02-08T22:27:43.272Z,78.09
2019-02-08T22:30:16.848Z,77.89
2019-02-08T22:32:45.065Z,77.66
2019-02-08T22:35:13.424Z,77.95
2019-02-08T22:37:41.354Z,78.14
2019-02-08T22:40:11.793Z,77.55
2019-02-08T22:42:39.766Z,78.37
2019-02-08T22:45:13.192Z,77.98
2019-02-08T22:47:41.172Z,78.19
2019-02-08T22:50:10.344Z,77.69
2019-02-08T22:52:38.372Z,77.83
2019-02-08T22:55:08.330Z,78.31
2019-02-08T22:57:36.223Z,78.70
2019-02-08T23:00:25.880Z,78.62
2019-02-08T23:02:53.858Z,78.62
2019-02-08T23:05:21.842Z,78.43
2019-02-08T23:07:49.856Z,78.38
2019-02-08T23:10:17.846Z,77.99
2019-02-08T23:12:45.854Z,77.86
2019-02-08T23:15:14.626Z,77.31
2019-02-08T23:17:42.663Z,77.48
2019-02-08T23:20:11.365Z,77.33
2019-02-08T23:22:39.465Z,76.90
2019-02-08T23:25:07.659Z,76.67
2019-02-08T23:27:36.118Z,76.75
2019-02-08T23:30:05.920Z,76.75
2019-02-08T23:32:33.777Z,76.93
2019-02-08T23:35:01.622Z,76.93
2019-02-08T23:37:29.492Z,76.70
2019-02-08T23:39:57.543Z,77.03
2019-02-08T23:42:25.561Z,77.00
2019-02-08T23:44:53.427Z,76.96
2019-02-08T23:47:21.269Z,76.61
2019-02-08T23:49:49.029Z,76.61
2019-02-08T23:52:17.056Z,76.78
2019-02-08T23:54:44.831Z,76.58
2019-02-08T23:57:12.736Z,76.42
2019-02-08T23:59:40.676Z,76.58
